sensor_id;sensor_type;location;lat;lon;timestamp;P1;durP1;ratioP1;P2;durP2;ratioP2
43529;SDS011;55654;50.966;6.878;2023-04-25T00:01:13;16.73;;;5.73;;
43529;SDS011;55654;50.966;6.878;2023-04-25T00:03:41;18.60;;;5.57;;
43529;SDS011;55654;50.966;6.878;2023-04-25T00:06:10;21.40;;;6.27;;
43529;SDS011;55654;50.966;6.878;2023-04-25T00:08:41;19.03;;;5.73;;
43529;SDS011;55654;50.966;6.878;2023-04-25T00:11:12;24.30;;;7.40;;
43529;SDS011;55654;50.966;6.878;2023-04-25T00:16:06;18.97;;;5.37;;
43529;SDS011;55654;50.966;6.878;2023-04-25T00:18:33;20.17;;;6.93;;
43529;SDS011;55654;50.966;6.878;2023-04-25T00:20:59;21.13;;;6.67;;
43529;SDS011;55654;50.966;6.878;2023-04-25T00:23:28;27.13;;;6.00;;
43529;SDS011;55654;50.966;6.878;2023-04-25T00:26:01;25.53;;;7.10;;
43529;SDS011;55654;50.966;6.878;2023-04-25T00:28:30;17.40;;;6.00;;
43529;SDS011;55654;50.966;6.878;2023-04-25T00:30:59;24.63;;;6.53;;
43529;SDS011;55654;50.966;6.878;2023-04-25T00:33:25;19.23;;;6.37;;
43529;SDS011;55654;50.966;6.878;2023-04-25T00:35:53;24.23;;;7.10;;
43529;SDS011;55654;50.966;6.878;2023-04-25T00:38:19;14.77;;;5.77;;
43529;SDS011;55654;50.966;6.878;2023-04-25T00:40:45;32.97;;;8.30;;
43529;SDS011;55654;50.966;6.878;2023-04-25T00:43:14;26.17;;;6.63;;
43529;SDS011;55654;50.966;6.878;2023-04-25T00:45:40;24.73;;;6.80;;
43529;SDS011;55654;50.966;6.878;2023-04-25T00:48:06;31.57;;;8.80;;
43529;SDS011;55654;50.966;6.878;2023-04-25T00:50:35;18.33;;;6.73;;
43529;SDS011;55654;50.966;6.878;2023-04-25T00:53:02;21.23;;;6.93;;
43529;SDS011;55654;50.966;6.878;2023-04-25T00:55:28;34.60;;;7.17;;
43529;SDS011;55654;50.966;6.878;2023-04-25T00:57:54;21.87;;;6.47;;
43529;SDS011;55654;50.966;6.878;2023-04-25T01:00:20;24.60;;;7.27;;
43529;SDS011;55654;50.966;6.878;2023-04-25T01:02:46;18.77;;;7.73;;
43529;SDS011;55654;50.966;6.878;2023-04-25T01:05:13;28.33;;;7.73;;
43529;SDS011;55654;50.966;6.878;2023-04-25T01:07:42;25.20;;;8.07;;
43529;SDS011;55654;50.966;6.878;2023-04-25T01:10:08;22.53;;;7.53;;
43529;SDS011;55654;50.966;6.878;2023-04-25T01:12:34;27.57;;;8.13;;
43529;SDS011;55654;50.966;6.878;2023-04-25T01:15:00;24.10;;;7.93;;
43529;SDS011;55654;50.966;6.878;2023-04-25T01:17:26;22.70;;;7.60;;
43529;SDS011;55654;50.966;6.878;2023-04-25T01:19:55;31.63;;;8.03;;
43529;SDS011;55654;50.966;6.878;2023-04-25T01:22:23;26.53;;;8.03;;
43529;SDS011;55654;50.966;6.878;2023-04-25T01:24:51;22.53;;;7.27;;
43529;SDS011;55654;50.966;6.878;2023-04-25T01:27:18;31.50;;;7.33;;
43529;SDS011;55654;50.966;6.878;2023-04-25T01:29:45;23.87;;;7.13;;
43529;SDS011;55654;50.966;6.878;2023-04-25T01:32:11;23.10;;;7.73;;
43529;SDS011;55654;50.966;6.878;2023-04-25T01:34:44;32.47;;;9.37;;
43529;SDS011;55654;50.966;6.878;2023-04-25T01:37:10;28.13;;;7.80;;
43529;SDS011;55654;50.966;6.878;2023-04-25T01:39:39;22.67;;;7.37;;
43529;SDS011;55654;50.966;6.878;2023-04-25T01:42:05;27.90;;;8.93;;
43529;SDS011;55654;50.966;6.878;2023-04-25T01:44:33;25.33;;;8.63;;
43529;SDS011;55654;50.966;6.878;2023-04-25T01:47:02;25.47;;;8.60;;
43529;SDS011;55654;50.966;6.878;2023-04-25T01:49:28;22.27;;;7.83;;
43529;SDS011;55654;50.966;6.878;2023-04-25T01:51:56;32.67;;;7.23;;
43529;SDS011;55654;50.966;6.878;2023-04-25T01:54:22;26.13;;;8.87;;
43529;SDS011;55654;50.966;6.878;2023-04-25T01:56:52;27.50;;;7.70;;
43529;SDS011;55654;50.966;6.878;2023-04-25T01:59:24;28.70;;;7.93;;
43529;SDS011;55654;50.966;6.878;2023-04-25T02:01:52;24.63;;;7.00;;
43529;SDS011;55654;50.966;6.878;2023-04-25T02:04:20;26.10;;;7.67;;
43529;SDS011;55654;50.966;6.878;2023-04-25T02:06:46;23.43;;;7.83;;
43529;SDS011;55654;50.966;6.878;2023-04-25T02:09:15;24.73;;;8.50;;
43529;SDS011;55654;50.966;6.878;2023-04-25T02:11:41;39.07;;;10.77;;
43529;SDS011;55654;50.966;6.878;2023-04-25T02:14:07;30.33;;;9.83;;
43529;SDS011;55654;50.966;6.878;2023-04-25T02:16:36;26.53;;;7.40;;
43529;SDS011;55654;50.966;6.878;2023-04-25T02:19:05;17.23;;;6.55;;
43529;SDS011;55654;50.966;6.878;2023-04-25T02:21:31;19.70;;;6.23;;
43529;SDS011;55654;50.966;6.878;2023-04-25T02:24:00;28.90;;;8.03;;
43529;SDS011;55654;50.966;6.878;2023-04-25T02:26:26;24.27;;;7.20;;
43529;SDS011;55654;50.966;6.878;2023-04-25T02:28:52;25.90;;;8.80;;
43529;SDS011;55654;50.966;6.878;2023-04-25T02:31:20;23.00;;;6.97;;
43529;SDS011;55654;50.966;6.878;2023-04-25T02:33:49;20.67;;;6.53;;
43529;SDS011;55654;50.966;6.878;2023-04-25T02:36:15;21.43;;;6.80;;
43529;SDS011;55654;50.966;6.878;2023-04-25T02:38:43;18.17;;;6.33;;
43529;SDS011;55654;50.966;6.878;2023-04-25T02:41:12;26.37;;;7.27;;
43529;SDS011;55654;50.966;6.878;2023-04-25T02:43:38;24.43;;;6.90;;
43529;SDS011;55654;50.966;6.878;2023-04-25T02:46:11;28.03;;;7.73;;
43529;SDS011;55654;50.966;6.878;2023-04-25T02:48:40;27.23;;;7.47;;
43529;SDS011;55654;50.966;6.878;2023-04-25T02:51:08;26.80;;;6.87;;
43529;SDS011;55654;50.966;6.878;2023-04-25T02:53:34;16.33;;;5.80;;
43529;SDS011;55654;50.966;6.878;2023-04-25T02:56:02;26.77;;;7.20;;
43529;SDS011;55654;50.966;6.878;2023-04-25T02:58:29;19.07;;;7.13;;
43529;SDS011;55654;50.966;6.878;2023-04-25T03:00:57;20.90;;;6.90;;
43529;SDS011;55654;50.966;6.878;2023-04-25T03:03:23;22.90;;;7.23;;
43529;SDS011;55654;50.966;6.878;2023-04-25T03:05:56;32.30;;;7.90;;
43529;SDS011;55654;50.966;6.878;2023-04-25T03:08:22;22.77;;;7.33;;
43529;SDS011;55654;50.966;6.878;2023-04-25T03:10:50;25.37;;;6.93;;
43529;SDS011;55654;50.966;6.878;2023-04-25T03:13:20;26.93;;;6.97;;
43529;SDS011;55654;50.966;6.878;2023-04-25T03:15:54;18.13;;;7.13;;
43529;SDS011;55654;50.966;6.878;2023-04-25T03:18:23;26.80;;;8.33;;
43529;SDS011;55654;50.966;6.878;2023-04-25T03:20:49;21.40;;;7.13;;
43529;SDS011;55654;50.966;6.878;2023-04-25T03:23:15;23.27;;;7.57;;
43529;SDS011;55654;50.966;6.878;2023-04-25T03:25:41;26.83;;;7.80;;
43529;SDS011;55654;50.966;6.878;2023-04-25T03:28:07;27.70;;;6.97;;
43529;SDS011;55654;50.966;6.878;2023-04-25T03:30:33;24.30;;;7.73;;
43529;SDS011;55654;50.966;6.878;2023-04-25T03:33:02;20.30;;;7.70;;
43529;SDS011;55654;50.966;6.878;2023-04-25T03:35:28;19.20;;;6.17;;
43529;SDS011;55654;50.966;6.878;2023-04-25T03:37:56;19.17;;;7.37;;
43529;SDS011;55654;50.966;6.878;2023-04-25T03:40:23;22.37;;;8.07;;
43529;SDS011;55654;50.966;6.878;2023-04-25T03:42:51;19.80;;;7.70;;
43529;SDS011;55654;50.966;6.878;2023-04-25T03:45:17;18.93;;;7.93;;
43529;SDS011;55654;50.966;6.878;2023-04-25T03:47:46;27.87;;;8.00;;
43529;SDS011;55654;50.966;6.878;2023-04-25T03:50:12;28.40;;;8.20;;
43529;SDS011;55654;50.966;6.878;2023-04-25T03:52:41;19.73;;;7.07;;
43529;SDS011;55654;50.966;6.878;2023-04-25T03:55:09;21.80;;;6.83;;
43529;SDS011;55654;50.966;6.878;2023-04-25T03:57:38;22.03;;;7.33;;
43529;SDS011;55654;50.966;6.878;2023-04-25T04:00:06;22.20;;;6.83;;
43529;SDS011;55654;50.966;6.878;2023-04-25T04:02:33;22.10;;;7.37;;
43529;SDS011;55654;50.966;6.878;2023-04-25T04:05:03;17.13;;;7.30;;
43529;SDS011;55654;50.966;6.878;2023-04-25T04:10:23;20.83;;;7.43;;
43529;SDS011;55654;50.966;6.878;2023-04-25T04:12:49;21.97;;;7.70;;
43529;SDS011;55654;50.966;6.878;2023-04-25T04:15:17;22.27;;;6.10;;
43529;SDS011;55654;50.966;6.878;2023-04-25T04:17:43;18.50;;;6.70;;
43529;SDS011;55654;50.966;6.878;2023-04-25T04:20:11;24.07;;;7.20;;
43529;SDS011;55654;50.966;6.878;2023-04-25T04:22:40;20.47;;;6.87;;
43529;SDS011;55654;50.966;6.878;2023-04-25T04:25:08;26.87;;;7.83;;
43529;SDS011;55654;50.966;6.878;2023-04-25T04:27:37;21.90;;;7.10;;
43529;SDS011;55654;50.966;6.878;2023-04-25T04:30:03;30.17;;;8.37;;
43529;SDS011;55654;50.966;6.878;2023-04-25T04:32:32;27.73;;;7.77;;
43529;SDS011;55654;50.966;6.878;2023-04-25T04:35:01;30.70;;;7.80;;
43529;SDS011;55654;50.966;6.878;2023-04-25T04:37:29;17.97;;;6.80;;
43529;SDS011;55654;50.966;6.878;2023-04-25T04:40:15;19.07;;;6.70;;
43529;SDS011;55654;50.966;6.878;2023-04-25T04:42:46;20.27;;;7.90;;
43529;SDS011;55654;50.966;6.878;2023-04-25T04:45:14;25.17;;;8.47;;
43529;SDS011;55654;50.966;6.878;2023-04-25T04:47:41;25.27;;;8.13;;
43529;SDS011;55654;50.966;6.878;2023-04-25T04:50:13;31.33;;;8.50;;
43529;SDS011;55654;50.966;6.878;2023-04-25T04:52:41;27.07;;;8.20;;
43529;SDS011;55654;50.966;6.878;2023-04-25T04:55:12;20.23;;;8.33;;
43529;SDS011;55654;50.966;6.878;2023-04-25T04:57:46;21.10;;;8.57;;
43529;SDS011;55654;50.966;6.878;2023-04-25T05:00:17;27.27;;;8.50;;
43529;SDS011;55654;50.966;6.878;2023-04-25T05:02:46;27.30;;;8.40;;
43529;SDS011;55654;50.966;6.878;2023-04-25T05:05:12;18.43;;;7.50;;
43529;SDS011;55654;50.966;6.878;2023-04-25T05:07:43;25.47;;;9.27;;
43529;SDS011;55654;50.966;6.878;2023-04-25T05:10:17;30.37;;;9.37;;
43529;SDS011;55654;50.966;6.878;2023-04-25T05:12:43;26.73;;;7.73;;
43529;SDS011;55654;50.966;6.878;2023-04-25T05:15:09;25.30;;;7.90;;
43529;SDS011;55654;50.966;6.878;2023-04-25T05:17:36;24.27;;;7.57;;
43529;SDS011;55654;50.966;6.878;2023-04-25T05:20:02;31.80;;;9.17;;
43529;SDS011;55654;50.966;6.878;2023-04-25T05:22:35;22.77;;;7.33;;
43529;SDS011;55654;50.966;6.878;2023-04-25T05:25:02;20.67;;;6.43;;
43529;SDS011;55654;50.966;6.878;2023-04-25T05:27:34;24.67;;;9.05;;
43529;SDS011;55654;50.966;6.878;2023-04-25T05:30:00;18.80;;;7.57;;
43529;SDS011;55654;50.966;6.878;2023-04-25T05:32:29;32.33;;;7.63;;
43529;SDS011;55654;50.966;6.878;2023-04-25T05:34:55;32.40;;;8.00;;
43529;SDS011;55654;50.966;6.878;2023-04-25T05:37:29;27.53;;;8.63;;
43529;SDS011;55654;50.966;6.878;2023-04-25T05:39:57;23.70;;;7.33;;
43529;SDS011;55654;50.966;6.878;2023-04-25T05:42:23;36.00;;;8.53;;
43529;SDS011;55654;50.966;6.878;2023-04-25T05:44:57;41.47;;;8.17;;
43529;SDS011;55654;50.966;6.878;2023-04-25T05:47:34;29.43;;;7.33;;
43529;SDS011;55654;50.966;6.878;2023-04-25T05:50:03;25.67;;;9.40;;
43529;SDS011;55654;50.966;6.878;2023-04-25T05:52:36;27.37;;;7.53;;
43529;SDS011;55654;50.966;6.878;2023-04-25T05:55:05;33.97;;;8.53;;
43529;SDS011;55654;50.966;6.878;2023-04-25T05:57:33;29.27;;;7.97;;
43529;SDS011;55654;50.966;6.878;2023-04-25T06:00:06;28.40;;;7.93;;
43529;SDS011;55654;50.966;6.878;2023-04-25T06:02:34;24.73;;;7.57;;
43529;SDS011;55654;50.966;6.878;2023-04-25T06:05:00;19.53;;;6.50;;
43529;SDS011;55654;50.966;6.878;2023-04-25T06:07:34;37.10;;;8.23;;
43529;SDS011;55654;50.966;6.878;2023-04-25T06:10:05;22.73;;;7.07;;
43529;SDS011;55654;50.966;6.878;2023-04-25T06:12:34;27.13;;;6.80;;
43529;SDS011;55654;50.966;6.878;2023-04-25T06:15:09;36.67;;;7.63;;
43529;SDS011;55654;50.966;6.878;2023-04-25T06:20:32;23.53;;;7.43;;
43529;SDS011;55654;50.966;6.878;2023-04-25T06:23:01;27.70;;;6.77;;
43529;SDS011;55654;50.966;6.878;2023-04-25T06:25:27;28.87;;;6.43;;
43529;SDS011;55654;50.966;6.878;2023-04-25T06:27:53;31.53;;;6.90;;
43529;SDS011;55654;50.966;6.878;2023-04-25T06:30:20;22.00;;;6.13;;
43529;SDS011;55654;50.966;6.878;2023-04-25T06:32:50;19.00;;;6.17;;
43529;SDS011;55654;50.966;6.878;2023-04-25T06:35:23;25.13;;;6.43;;
43529;SDS011;55654;50.966;6.878;2023-04-25T06:37:51;28.50;;;7.07;;
43529;SDS011;55654;50.966;6.878;2023-04-25T06:40:23;18.77;;;5.63;;
43529;SDS011;55654;50.966;6.878;2023-04-25T06:42:51;21.53;;;6.07;;
43529;SDS011;55654;50.966;6.878;2023-04-25T06:45:19;27.80;;;6.33;;
43529;SDS011;55654;50.966;6.878;2023-04-25T06:47:48;25.77;;;6.27;;
43529;SDS011;55654;50.966;6.878;2023-04-25T06:50:14;19.50;;;5.17;;
43529;SDS011;55654;50.966;6.878;2023-04-25T06:52:43;20.97;;;5.23;;
43529;SDS011;55654;50.966;6.878;2023-04-25T06:55:09;26.33;;;6.40;;
43529;SDS011;55654;50.966;6.878;2023-04-25T06:57:35;20.90;;;5.13;;
43529;SDS011;55654;50.966;6.878;2023-04-25T07:00:01;24.27;;;6.40;;
43529;SDS011;55654;50.966;6.878;2023-04-25T07:02:33;23.20;;;5.27;;
43529;SDS011;55654;50.966;6.878;2023-04-25T07:04:59;26.17;;;5.07;;
43529;SDS011;55654;50.966;6.878;2023-04-25T07:07:32;30.57;;;5.60;;
43529;SDS011;55654;50.966;6.878;2023-04-25T07:10:01;18.50;;;4.73;;
43529;SDS011;55654;50.966;6.878;2023-04-25T07:15:12;20.20;;;4.27;;
43529;SDS011;55654;50.966;6.878;2023-04-25T07:17:38;29.03;;;4.93;;
43529;SDS011;55654;50.966;6.878;2023-04-25T07:20:07;26.17;;;5.03;;
43529;SDS011;55654;50.966;6.878;2023-04-25T07:22:34;30.77;;;6.00;;
43529;SDS011;55654;50.966;6.878;2023-04-25T07:25:09;14.68;;;4.05;;
43529;SDS011;55654;50.966;6.878;2023-04-25T07:27:41;23.10;;;4.87;;
43529;SDS011;55654;50.966;6.878;2023-04-25T07:30:08;14.07;;;4.32;;
43529;SDS011;55654;50.966;6.878;2023-04-25T07:32:37;16.87;;;3.80;;
43529;SDS011;55654;50.966;6.878;2023-04-25T07:35:05;19.53;;;4.77;;
43529;SDS011;55654;50.966;6.878;2023-04-25T07:37:37;19.50;;;4.82;;
43529;SDS011;55654;50.966;6.878;2023-04-25T07:40:06;20.83;;;4.77;;
43529;SDS011;55654;50.966;6.878;2023-04-25T07:42:34;20.83;;;5.27;;
43529;SDS011;55654;50.966;6.878;2023-04-25T07:45:00;17.40;;;5.30;;
43529;SDS011;55654;50.966;6.878;2023-04-25T07:47:34;17.43;;;4.23;;
43529;SDS011;55654;50.966;6.878;2023-04-25T07:50:03;14.40;;;5.00;;
43529;SDS011;55654;50.966;6.878;2023-04-25T07:52:32;15.73;;;4.23;;
43529;SDS011;55654;50.966;6.878;2023-04-25T07:55:03;13.77;;;4.57;;
43529;SDS011;55654;50.966;6.878;2023-04-25T07:57:32;15.50;;;4.13;;
43529;SDS011;55654;50.966;6.878;2023-04-25T08:00:08;12.33;;;3.67;;
43529;SDS011;55654;50.966;6.878;2023-04-25T08:02:37;25.70;;;4.63;;
43529;SDS011;55654;50.966;6.878;2023-04-25T08:05:10;24.90;;;5.50;;
43529;SDS011;55654;50.966;6.878;2023-04-25T08:07:40;14.40;;;3.57;;
43529;SDS011;55654;50.966;6.878;2023-04-25T08:10:11;14.63;;;3.73;;
43529;SDS011;55654;50.966;6.878;2023-04-25T08:12:40;24.67;;;5.40;;
43529;SDS011;55654;50.966;6.878;2023-04-25T08:15:11;19.80;;;4.67;;
43529;SDS011;55654;50.966;6.878;2023-04-25T08:20:09;17.77;;;3.27;;
43529;SDS011;55654;50.966;6.878;2023-04-25T08:22:55;15.23;;;3.33;;
43529;SDS011;55654;50.966;6.878;2023-04-25T08:25:24;13.13;;;2.97;;
43529;SDS011;55654;50.966;6.878;2023-04-25T08:27:50;46.93;;;4.67;;
43529;SDS011;55654;50.966;6.878;2023-04-25T08:30:19;17.60;;;3.80;;
43529;SDS011;55654;50.966;6.878;2023-04-25T08:32:53;17.97;;;3.53;;
43529;SDS011;55654;50.966;6.878;2023-04-25T08:35:19;12.20;;;3.57;;
43529;SDS011;55654;50.966;6.878;2023-04-25T08:37:50;16.57;;;3.43;;
43529;SDS011;55654;50.966;6.878;2023-04-25T08:40:24;16.47;;;3.10;;
43529;SDS011;55654;50.966;6.878;2023-04-25T08:42:56;16.60;;;2.57;;
43529;SDS011;55654;50.966;6.878;2023-04-25T08:45:23;9.77;;;2.73;;
43529;SDS011;55654;50.966;6.878;2023-04-25T08:47:51;15.27;;;3.17;;
43529;SDS011;55654;50.966;6.878;2023-04-25T08:50:18;14.40;;;2.90;;
43529;SDS011;55654;50.966;6.878;2023-04-25T08:52:49;16.50;;;3.10;;
43529;SDS011;55654;50.966;6.878;2023-04-25T08:55:19;14.93;;;3.67;;
43529;SDS011;55654;50.966;6.878;2023-04-25T08:57:46;16.27;;;4.97;;
43529;SDS011;55654;50.966;6.878;2023-04-25T09:00:13;12.43;;;2.80;;
43529;SDS011;55654;50.966;6.878;2023-04-25T09:02:39;22.37;;;3.67;;
43529;SDS011;55654;50.966;6.878;2023-04-25T09:05:13;13.03;;;3.33;;
43529;SDS011;55654;50.966;6.878;2023-04-25T09:07:39;14.63;;;3.17;;
43529;SDS011;55654;50.966;6.878;2023-04-25T09:10:05;19.37;;;3.27;;
43529;SDS011;55654;50.966;6.878;2023-04-25T09:12:31;13.73;;;2.40;;
43529;SDS011;55654;50.966;6.878;2023-04-25T09:15:06;15.10;;;2.80;;
43529;SDS011;55654;50.966;6.878;2023-04-25T09:17:33;15.67;;;2.73;;
43529;SDS011;55654;50.966;6.878;2023-04-25T09:20:09;8.87;;;2.47;;
43529;SDS011;55654;50.966;6.878;2023-04-25T09:22:38;11.03;;;2.30;;
43529;SDS011;55654;50.966;6.878;2023-04-25T09:25:10;11.83;;;2.60;;
43529;SDS011;55654;50.966;6.878;2023-04-25T09:27:37;10.67;;;2.50;;
43529;SDS011;55654;50.966;6.878;2023-04-25T09:30:15;14.40;;;2.60;;
43529;SDS011;55654;50.966;6.878;2023-04-25T09:32:48;11.23;;;2.87;;
43529;SDS011;55654;50.966;6.878;2023-04-25T09:35:23;13.23;;;3.20;;
43529;SDS011;55654;50.966;6.878;2023-04-25T09:37:51;14.80;;;2.47;;
43529;SDS011;55654;50.966;6.878;2023-04-25T09:40:23;11.03;;;2.07;;
43529;SDS011;55654;50.966;6.878;2023-04-25T09:42:51;13.20;;;2.10;;
43529;SDS011;55654;50.966;6.878;2023-04-25T09:45:17;11.73;;;2.53;;
43529;SDS011;55654;50.966;6.878;2023-04-25T09:47:46;10.67;;;2.33;;
43529;SDS011;55654;50.966;6.878;2023-04-25T09:50:20;10.90;;;1.97;;
43529;SDS011;55654;50.966;6.878;2023-04-25T09:53:02;16.33;;;2.57;;
43529;SDS011;55654;50.966;6.878;2023-04-25T09:55:35;14.30;;;3.42;;
43529;SDS011;55654;50.966;6.878;2023-04-25T09:58:03;11.40;;;2.20;;
43529;SDS011;55654;50.966;6.878;2023-04-25T10:00:31;11.87;;;2.60;;
43529;SDS011;55654;50.966;6.878;2023-04-25T10:02:58;10.43;;;2.57;;
43529;SDS011;55654;50.966;6.878;2023-04-25T10:05:35;10.87;;;2.30;;
43529;SDS011;55654;50.966;6.878;2023-04-25T10:08:03;9.10;;;2.80;;
43529;SDS011;55654;50.966;6.878;2023-04-25T10:10:42;15.10;;;3.22;;
43529;SDS011;55654;50.966;6.878;2023-04-25T10:13:08;12.93;;;2.73;;
43529;SDS011;55654;50.966;6.878;2023-04-25T10:15:37;9.17;;;2.07;;
43529;SDS011;55654;50.966;6.878;2023-04-25T10:18:03;14.13;;;2.70;;
43529;SDS011;55654;50.966;6.878;2023-04-25T10:20:32;10.97;;;2.30;;
43529;SDS011;55654;50.966;6.878;2023-04-25T10:23:03;11.33;;;2.40;;
43529;SDS011;55654;50.966;6.878;2023-04-25T10:25:35;9.87;;;2.17;;
43529;SDS011;55654;50.966;6.878;2023-04-25T10:28:02;6.47;;;1.87;;
43529;SDS011;55654;50.966;6.878;2023-04-25T10:30:29;12.30;;;2.80;;
43529;SDS011;55654;50.966;6.878;2023-04-25T10:32:58;14.23;;;2.60;;
43529;SDS011;55654;50.966;6.878;2023-04-25T10:35:28;25.83;;;2.88;;
43529;SDS011;55654;50.966;6.878;2023-04-25T10:38:10;13.83;;;3.23;;
43529;SDS011;55654;50.966;6.878;2023-04-25T10:40:37;6.55;;;1.70;;
43529;SDS011;55654;50.966;6.878;2023-04-25T10:45:56;12.03;;;2.47;;
43529;SDS011;55654;50.966;6.878;2023-04-25T10:48:31;13.43;;;3.27;;
43529;SDS011;55654;50.966;6.878;2023-04-25T10:51:10;12.80;;;1.90;;
43529;SDS011;55654;50.966;6.878;2023-04-25T10:53:39;9.27;;;2.30;;
43529;SDS011;55654;50.966;6.878;2023-04-25T10:56:21;10.33;;;1.93;;
43529;SDS011;55654;50.966;6.878;2023-04-25T10:58:50;11.48;;;2.25;;
43529;SDS011;55654;50.966;6.878;2023-04-25T11:01:21;6.53;;;1.70;;
43529;SDS011;55654;50.966;6.878;2023-04-25T11:03:56;8.25;;;2.13;;
43529;SDS011;55654;50.966;6.878;2023-04-25T11:06:28;10.57;;;1.63;;
43529;SDS011;55654;50.966;6.878;2023-04-25T11:08:56;6.33;;;1.90;;
43529;SDS011;55654;50.966;6.878;2023-04-25T11:11:25;9.23;;;1.93;;
43529;SDS011;55654;50.966;6.878;2023-04-25T11:13:55;8.47;;;1.80;;
43529;SDS011;55654;50.966;6.878;2023-04-25T11:16:24;23.70;;;3.50;;
43529;SDS011;55654;50.966;6.878;2023-04-25T11:18:50;10.70;;;1.40;;
43529;SDS011;55654;50.966;6.878;2023-04-25T11:21:16;9.57;;;2.00;;
43529;SDS011;55654;50.966;6.878;2023-04-25T11:23:46;10.60;;;2.13;;
43529;SDS011;55654;50.966;6.878;2023-04-25T11:26:14;14.10;;;2.13;;
43529;SDS011;55654;50.966;6.878;2023-04-25T11:28:44;7.00;;;1.80;;
43529;SDS011;55654;50.966;6.878;2023-04-25T11:31:18;7.63;;;2.17;;
43529;SDS011;55654;50.966;6.878;2023-04-25T11:33:48;12.23;;;2.17;;
43529;SDS011;55654;50.966;6.878;2023-04-25T11:36:16;8.97;;;1.67;;
43529;SDS011;55654;50.966;6.878;2023-04-25T11:38:42;14.53;;;3.03;;
43529;SDS011;55654;50.966;6.878;2023-04-25T11:41:08;8.17;;;2.10;;
43529;SDS011;55654;50.966;6.878;2023-04-25T11:43:37;9.33;;;1.57;;
43529;SDS011;55654;50.966;6.878;2023-04-25T11:46:06;8.20;;;1.47;;
43529;SDS011;55654;50.966;6.878;2023-04-25T11:48:39;6.63;;;1.70;;
43529;SDS011;55654;50.966;6.878;2023-04-25T11:51:05;5.88;;;1.80;;
43529;SDS011;55654;50.966;6.878;2023-04-25T11:53:34;6.63;;;1.50;;
43529;SDS011;55654;50.966;6.878;2023-04-25T11:56:00;4.50;;;1.67;;
43529;SDS011;55654;50.966;6.878;2023-04-25T11:58:27;5.50;;;1.53;;
43529;SDS011;55654;50.966;6.878;2023-04-25T12:00:55;9.23;;;1.40;;
43529;SDS011;55654;50.966;6.878;2023-04-25T12:03:24;16.13;;;2.50;;
43529;SDS011;55654;50.966;6.878;2023-04-25T12:06:01;6.05;;;1.48;;
43529;SDS011;55654;50.966;6.878;2023-04-25T12:08:28;5.38;;;1.02;;
43529;SDS011;55654;50.966;6.878;2023-04-25T12:10:54;3.87;;;1.40;;
43529;SDS011;55654;50.966;6.878;2023-04-25T12:13:23;5.53;;;1.43;;
43529;SDS011;55654;50.966;6.878;2023-04-25T12:15:50;7.33;;;1.70;;
43529;SDS011;55654;50.966;6.878;2023-04-25T12:18:28;9.43;;;1.90;;
43529;SDS011;55654;50.966;6.878;2023-04-25T12:20:57;4.87;;;1.30;;
43529;SDS011;55654;50.966;6.878;2023-04-25T12:23:27;5.57;;;1.40;;
43529;SDS011;55654;50.966;6.878;2023-04-25T12:25:53;6.63;;;1.70;;
43529;SDS011;55654;50.966;6.878;2023-04-25T12:28:21;5.07;;;1.37;;
43529;SDS011;55654;50.966;6.878;2023-04-25T12:33:27;7.47;;;1.83;;
43529;SDS011;55654;50.966;6.878;2023-04-25T12:35:54;10.67;;;1.80;;
43529;SDS011;55654;50.966;6.878;2023-04-25T12:38:34;7.33;;;2.00;;
43529;SDS011;55654;50.966;6.878;2023-04-25T12:41:06;4.97;;;1.35;;
43529;SDS011;55654;50.966;6.878;2023-04-25T12:43:35;6.13;;;1.37;;
43529;SDS011;55654;50.966;6.878;2023-04-25T12:46:01;5.27;;;1.37;;
43529;SDS011;55654;50.966;6.878;2023-04-25T12:48:27;8.13;;;1.73;;
43529;SDS011;55654;50.966;6.878;2023-04-25T12:51:10;9.43;;;1.83;;
43529;SDS011;55654;50.966;6.878;2023-04-25T12:53:38;3.83;;;1.20;;
43529;SDS011;55654;50.966;6.878;2023-04-25T12:56:06;10.00;;;2.23;;
43529;SDS011;55654;50.966;6.878;2023-04-25T12:58:35;10.90;;;2.23;;
43529;SDS011;55654;50.966;6.878;2023-04-25T13:01:01;9.80;;;2.10;;
43529;SDS011;55654;50.966;6.878;2023-04-25T13:03:30;7.07;;;1.67;;
43529;SDS011;55654;50.966;6.878;2023-04-25T13:05:56;7.83;;;1.90;;
43529;SDS011;55654;50.966;6.878;2023-04-25T13:08:23;6.90;;;1.90;;
43529;SDS011;55654;50.966;6.878;2023-04-25T13:10:49;4.27;;;1.63;;
43529;SDS011;55654;50.966;6.878;2023-04-25T13:13:17;5.33;;;1.50;;
43529;SDS011;55654;50.966;6.878;2023-04-25T13:15:43;2.87;;;1.20;;
43529;SDS011;55654;50.966;6.878;2023-04-25T13:18:11;3.97;;;1.40;;
43529;SDS011;55654;50.966;6.878;2023-04-25T13:20:37;8.47;;;1.07;;
43529;SDS011;55654;50.966;6.878;2023-04-25T13:23:03;2.10;;;1.03;;
43529;SDS011;55654;50.966;6.878;2023-04-25T13:25:32;4.53;;;1.33;;
43529;SDS011;55654;50.966;6.878;2023-04-25T13:28:01;5.00;;;1.20;;
43529;SDS011;55654;50.966;6.878;2023-04-25T13:30:27;2.97;;;1.00;;
43529;SDS011;55654;50.966;6.878;2023-04-25T13:32:56;5.53;;;0.90;;
43529;SDS011;55654;50.966;6.878;2023-04-25T13:35:29;7.27;;;1.60;;
43529;SDS011;55654;50.966;6.878;2023-04-25T13:37:59;1.73;;;0.87;;
43529;SDS011;55654;50.966;6.878;2023-04-25T13:40:27;3.33;;;1.23;;
43529;SDS011;55654;50.966;6.878;2023-04-25T13:42:56;5.60;;;1.37;;
43529;SDS011;55654;50.966;6.878;2023-04-25T13:45:27;6.40;;;1.13;;
43529;SDS011;55654;50.966;6.878;2023-04-25T13:48:10;5.23;;;1.63;;
43529;SDS011;55654;50.966;6.878;2023-04-25T13:50:41;5.53;;;1.83;;
43529;SDS011;55654;50.966;6.878;2023-04-25T13:53:14;5.37;;;1.17;;
43529;SDS011;55654;50.966;6.878;2023-04-25T13:56:03;3.23;;;1.00;;
43529;SDS011;55654;50.966;6.878;2023-04-25T13:58:29;1.60;;;0.70;;
43529;SDS011;55654;50.966;6.878;2023-04-25T14:00:57;8.63;;;1.77;;
43529;SDS011;55654;50.966;6.878;2023-04-25T14:03:31;4.10;;;1.20;;
43529;SDS011;55654;50.966;6.878;2023-04-25T14:06:00;4.33;;;1.23;;
43529;SDS011;55654;50.966;6.878;2023-04-25T14:08:26;2.30;;;0.80;;
43529;SDS011;55654;50.966;6.878;2023-04-25T14:11:00;6.83;;;1.53;;
43529;SDS011;55654;50.966;6.878;2023-04-25T14:13:28;7.13;;;1.67;;
43529;SDS011;55654;50.966;6.878;2023-04-25T14:15:55;3.07;;;1.13;;
43529;SDS011;55654;50.966;6.878;2023-04-25T14:18:21;6.10;;;1.30;;
43529;SDS011;55654;50.966;6.878;2023-04-25T14:20:54;2.30;;;0.77;;
43529;SDS011;55654;50.966;6.878;2023-04-25T14:23:20;3.13;;;0.80;;
43529;SDS011;55654;50.966;6.878;2023-04-25T14:28:25;7.73;;;1.27;;
43529;SDS011;55654;50.966;6.878;2023-04-25T14:30:51;4.87;;;0.90;;
43529;SDS011;55654;50.966;6.878;2023-04-25T14:33:36;4.03;;;1.35;;
43529;SDS011;55654;50.966;6.878;2023-04-25T14:38:35;4.47;;;1.07;;
43529;SDS011;55654;50.966;6.878;2023-04-25T14:41:01;4.77;;;1.10;;
43529;SDS011;55654;50.966;6.878;2023-04-25T14:43:29;3.57;;;1.43;;
43529;SDS011;55654;50.966;6.878;2023-04-25T14:45:55;2.70;;;0.83;;
43529;SDS011;55654;50.966;6.878;2023-04-25T14:48:24;6.97;;;1.30;;
43529;SDS011;55654;50.966;6.878;2023-04-25T14:50:50;6.47;;;1.40;;
43529;SDS011;55654;50.966;6.878;2023-04-25T14:53:16;14.00;;;1.63;;
43529;SDS011;55654;50.966;6.878;2023-04-25T14:55:42;7.37;;;1.13;;
43529;SDS011;55654;50.966;6.878;2023-04-25T14:58:08;7.73;;;1.57;;
43529;SDS011;55654;50.966;6.878;2023-04-25T15:00:34;6.97;;;1.27;;
43529;SDS011;55654;50.966;6.878;2023-04-25T15:03:00;7.50;;;1.10;;
43529;SDS011;55654;50.966;6.878;2023-04-25T15:05:34;4.57;;;1.13;;
43529;SDS011;55654;50.966;6.878;2023-04-25T15:08:01;5.43;;;1.40;;
43529;SDS011;55654;50.966;6.878;2023-04-25T15:10:28;4.00;;;1.27;;
43529;SDS011;55654;50.966;6.878;2023-04-25T15:12:56;7.07;;;1.50;;